Time;durP1;ratioP1;P1;durP2;ratioP2;P2;SDS_P1;SDS_P2;PMS_P1;PMS_P2;Temp;Humidity;BMP_temperature;BMP_pressure;BME280_temperature;BME280_humidity;BME280_pressure;Samples;Min_cycle;Max_cycle;Signal;HPM_P1;HPM_P2
2022/12/19 00:00:36;;;;;;;;;7.00;5.00;;;;;19.42;50.66;102941.27;105534;1275;17780;-66
2022/12/19 00:03:24;;;;;;;;;4.00;4.00;;;;;19.40;50.69;102941.98;105633;1295;18439;-69
2022/12/19 00:05:51;;;;;;;;;4.00;4.00;;;;;19.42;50.53;102937.15;105538;1281;18084;-65
2022/12/19 00:08:19;;;;;;;;;7.00;5.00;;;;;19.42;50.60;102936.61;105627;1282;21541;-68
2022/12/19 00:10:46;;;;;;;;;7.00;4.50;;;;;19.41;50.45;102933.77;105546;1283;20605;-68
2022/12/19 00:13:14;;;;;;;;;5.00;5.00;;;;;19.40;50.47;102932.92;105568;1281;18156;-66
2022/12/19 00:15:41;;;;;;;;;5.00;4.00;;;;;19.39;50.54;102929.52;105533;1280;20706;-66
2022/12/19 00:18:08;;;;;;;;;4.00;4.00;;;;;19.41;50.61;102929.95;105514;1282;19177;-66
2022/12/19 00:20:36;;;;;;;;;7.00;5.00;;;;;19.40;50.73;102929.09;105513;1282;20331;-69
2022/12/19 00:23:03;;;;;;;;;5.00;5.00;;;;;19.40;50.38;102924.23;105568;1275;18884;-67
2022/12/19 00:25:31;;;;;;;;;5.00;5.00;;;;;19.39;50.45;102923.02;105560;1282;20068;-66
2022/12/19 00:27:58;;;;;;;;;5.00;5.00;;;;;19.39;50.25;102921.54;105569;1297;19386;-67
2022/12/19 00:30:26;;;;;;;;;5.00;5.00;;;;;19.39;50.55;102916.85;105645;1281;19873;-69
2022/12/19 00:32:53;;;;;;;;;7.00;5.00;;;;;19.39;50.42;102914.13;105613;1297;18463;-68
2022/12/19 00:35:21;;;;;;;;;5.00;4.00;;;;;19.37;50.61;102907.34;105512;1297;20591;-68
2022/12/19 00:37:48;;;;;;;;;5.00;4.00;;;;;19.38;50.50;102905.52;105603;1291;17769;-66
2022/12/19 00:40:16;;;;;;;;;5.00;5.00;;;;;19.38;50.48;102910.74;105537;1280;20282;-66
2022/12/19 00:42:43;;;;;;;;;5.00;5.00;;;;;19.37;50.47;102913.70;105464;1289;18076;-68
2022/12/19 00:45:11;;;;;;;;;5.00;4.50;;;;;19.38;50.44;102908.95;105570;1275;19597;-68
2022/12/19 00:47:38;;;;;;;;;5.00;5.00;;;;;19.37;50.43;102907.73;105462;1281;22550;-67
2022/12/19 00:50:06;;;;;;;;;7.00;5.00;;;;;19.37;50.40;102907.91;105498;1282;19497;-67
2022/12/19 00:52:33;;;;;;;;;;;;;;;19.38;50.21;102910.61;105524;1282;17861;-68
2022/12/19 00:55:01;;;;;;;;;4.00;4.00;;;;;19.38;50.25;102903.90;105573;1282;20622;-67
2022/12/19 00:57:28;;;;;;;;;5.00;5.00;;;;;19.36;50.47;102893.30;105567;1275;17749;-68
2022/12/19 00:59:56;;;;;;;;;4.00;4.00;;;;;19.36;50.19;102888.59;105574;1280;17781;-67
2022/12/19 01:02:23;;;;;;;;;4.00;4.00;;;;;19.36;50.31;102889.88;105507;1280;18707;-67
2022/12/19 01:04:51;;;;;;;;;4.00;4.00;;;;;19.35;50.12;102883.05;105594;1275;20038;-67
2022/12/19 01:07:18;;;;;;;;;7.00;5.00;;;;;19.36;50.15;102883.52;105509;1290;19771;-67
2022/12/19 01:09:45;;;;;;;;;5.00;5.00;;;;;19.36;50.32;102875.95;105504;1282;21484;-67
2022/12/19 01:14:58;;;;;;;;;4.00;4.00;;;;;19.36;50.22;102868.45;105562;1282;17888;-67
2022/12/19 01:17:26;;;;;;;;;4.00;4.00;;;;;19.36;50.32;102863.21;105542;1275;18476;-67
2022/12/19 01:19:53;;;;;;;;;5.00;4.00;;;;;19.36;50.38;102844.03;105646;1279;19598;-68
2022/12/19 01:22:21;;;;;;;;;5.00;5.00;;;;;19.35;49.96;102834.29;105619;1298;21437;-67
2022/12/19 01:24:48;;;;;;;;;5.00;5.00;;;;;19.35;50.03;102829.38;105574;1282;19803;-68
2022/12/19 01:27:16;;;;;;;;;5.00;4.00;;;;;19.35;50.34;102832.47;105629;1279;19666;-67
2022/12/19 01:29:43;;;;;;;;;4.00;4.00;;;;;19.35;50.03;102832.52;105659;1275;17856;-68
2022/12/19 01:32:10;;;;;;;;;5.00;5.00;;;;;19.35;50.06;102832.29;105618;1281;22471;-67
2022/12/19 01:34:38;;;;;;;;;5.00;4.00;;;;;19.35;50.01;102829.95;105638;1272;22518;-68
2022/12/19 01:37:06;;;;;;;;;5.00;4.50;;;;;19.35;49.82;102828.14;105660;1297;17888;-67
2022/12/19 01:39:33;;;;;;;;;4.00;4.00;;;;;19.35;50.19;102829.75;105658;1295;19871;-68
2022/12/19 01:42:01;;;;;;;;;2.00;2.00;;;;;19.36;49.87;102830.64;105599;1272;19789;-67
2022/12/19 01:44:28;;;;;;;;;4.00;4.00;;;;;19.35;50.06;102823.04;105616;1274;30628;-68
2022/12/19 01:46:56;;;;;;;;;4.50;4.00;;;;;19.34;50.01;102821.69;105625;1272;18725;-67
2022/12/19 01:49:23;;;;;;;;;3.00;3.00;;;;;19.34;49.86;102820.23;105683;1279;19578;-67
2022/12/19 01:51:51;;;;;;;;;5.00;5.00;;;;;19.34;49.94;102822.98;105607;1279;20318;-67
2022/12/19 01:54:18;;;;;;;;;7.00;7.00;;;;;19.35;49.81;102820.57;105657;1275;22238;-67
2022/12/19 01:56:46;;;;;;;;;;;;;;;19.35;49.77;102815.83;105632;1289;18120;-68
2022/12/19 01:59:13;;;;;;;;;7.00;6.00;;;;;19.33;49.94;102813.59;105615;1279;19249;-67
2022/12/19 02:01:40;;;;;;;;;5.00;5.00;;;;;19.34;49.95;102811.01;105638;1289;21238;-67
2022/12/19 02:04:08;;;;;;;;;5.00;5.00;;;;;19.34;49.59;102808.14;105645;1279;18267;-67
2022/12/19 02:06:35;;;;;;;;;8.00;5.00;;;;;19.34;49.60;102813.20;105623;1295;17733;-68
2022/12/19 02:09:03;;;;;;;;;5.00;4.50;;;;;19.34;49.95;102809.73;105675;1275;18812;-68
2022/12/19 02:11:31;;;;;;;;;7.50;7.00;;;;;19.34;49.94;102810.64;105626;1279;18420;-67
2022/12/19 02:13:58;;;;;;;;;5.00;5.00;;;;;19.33;49.97;102801.48;105646;1289;21117;-67
2022/12/19 02:16:26;;;;;;;;;4.00;4.00;;;;;19.33;49.94;102805.65;105640;1280;26917;-67
2022/12/19 02:18:53;;;;;;;;;5.00;5.00;;;;;19.32;49.70;102803.16;105630;1279;19706;-67
2022/12/19 02:21:20;;;;;;;;;4.00;4.00;;;;;19.33;49.62;102806.76;105656;1297;17734;-67
2022/12/19 02:23:48;;;;;;;;;5.00;5.00;;;;;19.32;49.83;102804.98;105568;1289;18947;-68
2022/12/19 02:26:16;;;;;;;;;7.00;5.00;;;;;19.33;49.89;102805.30;105610;1282;18085;-68
2022/12/19 02:28:43;;;;;;;;;4.00;4.00;;;;;19.31;49.64;102800.16;105607;1279;17761;-67
2022/12/19 02:31:11;;;;;;;;;5.00;4.50;;;;;19.32;49.60;102793.23;105635;1272;20287;-68
2022/12/19 02:33:38;;;;;;;;;4.00;4.00;;;;;19.32;49.81;102791.95;105703;1269;21381;-66
2022/12/19 02:36:06;;;;;;;;;3.00;3.00;;;;;19.31;49.80;102790.36;105648;1297;19314;-65
2022/12/19 02:38:33;;;;;;;;;5.00;4.00;;;;;19.32;49.81;102786.52;105593;1275;19988;-66
2022/12/19 02:41:01;;;;;;;;;4.00;4.00;;;;;19.31;49.83;102776.95;105648;1275;18071;-67
2022/12/19 02:43:28;;;;;;;;;4.00;4.00;;;;;19.31;49.76;102776.02;105630;1279;19201;-67
2022/12/19 02:45:55;;;;;;;;;4.00;4.00;;;;;19.31;49.59;102771.16;105617;1288;19971;-67
2022/12/19 02:48:23;;;;;;;;;5.00;5.00;;;;;19.31;49.52;102766.41;105679;1272;21745;-68
2022/12/19 02:50:51;;;;;;;;;7.00;6.00;;;;;19.31;49.41;102766.83;105616;1279;18012;-68
2022/12/19 02:53:18;;;;;;;;;5.00;4.00;;;;;19.31;49.44;102765.00;105615;1279;18503;-68
2022/12/19 02:55:46;;;;;;;;;4.00;4.00;;;;;19.30;49.38;102767.25;105660;1282;18099;-66
2022/12/19 02:58:13;;;;;;;;;5.00;5.00;;;;;19.30;49.54;102766.71;105628;1289;20724;-66
2022/12/19 03:00:41;;;;;;;;;5.00;5.00;;;;;19.30;49.60;102769.28;105613;1279;18510;-66
2022/12/19 03:03:09;;;;;;;;;2.00;2.00;;;;;19.30;49.41;102775.06;105671;1272;18279;-67
2022/12/19 03:05:36;;;;;;;;;5.00;5.00;;;;;19.30;49.58;102768.88;105637;1280;17982;-67
2022/12/19 03:08:03;;;;;;;;;3.00;3.00;;;;;19.31;49.59;102767.40;105677;1272;18525;-66
2022/12/19 03:10:31;;;;;;;;;2.00;2.00;;;;;19.30;49.31;102762.53;105702;1279;19295;-68
2022/12/19 03:12:58;;;;;;;;;5.00;5.00;;;;;19.29;49.53;102758.60;105659;1279;22107;-68
2022/12/19 03:15:26;;;;;;;;;4.00;4.00;;;;;19.30;49.43;102755.44;105664;1282;19441;-67
2022/12/19 03:17:53;;;;;;;;;2.00;2.00;;;;;19.30;49.57;102751.48;105548;1272;18390;-66
2022/12/19 03:20:21;;;;;;;;;4.00;4.00;;;;;19.30;49.32;102752.20;105651;1272;21110;-65
2022/12/19 03:22:48;;;;;;;;;5.00;5.00;;;;;19.30;49.58;102752.05;105611;1272;23182;-66
2022/12/19 03:25:16;;;;;;;;;5.00;5.00;;;;;19.30;49.40;102756.00;105621;1297;18107;-67
2022/12/19 03:27:43;;;;;;;;;4.00;4.00;;;;;19.31;49.38;102751.23;105680;1282;17771;-68
2022/12/19 03:30:11;;;;;;;;;5.00;4.00;;;;;19.29;49.32;102746.11;105637;1279;18460;-68
2022/12/19 03:32:38;;;;;;;;;5.00;5.00;;;;;19.29;49.06;102746.31;105628;1279;18112;-68
2022/12/19 03:35:06;;;;;;;;;5.00;4.50;;;;;19.28;49.18;102738.75;105620;1281;18112;-66
2022/12/19 03:37:33;;;;;;;;;5.00;4.00;;;;;19.28;49.35;102732.79;105635;1281;25031;-67
2022/12/19 03:40:01;;;;;;;;;4.00;4.00;;;;;19.28;49.23;102730.45;105615;1279;18103;-67
2022/12/19 03:45:13;;;;;;;;;4.00;4.00;;;;;19.28;49.38;102730.05;105638;1279;18511;-67
2022/12/19 03:47:41;;;;;;;;;4.50;4.50;;;;;19.28;49.33;102726.46;105634;1275;18106;-66
2022/12/19 03:50:09;;;;;;;;;5.00;5.00;;;;;19.29;49.34;102721.33;105676;1279;19131;-67
2022/12/19 03:52:36;;;;;;;;;5.00;4.00;;;;;19.28;49.33;102715.20;105629;1295;21912;-68
2022/12/19 03:55:04;;;;;;;;;5.00;4.00;;;;;19.29;48.97;102713.01;105656;1291;18780;-66
2022/12/19 03:57:31;;;;;;;;;5.00;4.00;;;;;19.28;49.14;102707.45;105678;1272;20095;-66
2022/12/19 03:59:59;;;;;;;;;4.00;4.00;;;;;19.27;49.32;102702.80;105654;1297;18492;-67
2022/12/19 04:02:26;;;;;;;;;4.00;4.00;;;;;19.27;49.07;102696.42;105601;1281;19530;-67
2022/12/19 04:04:54;;;;;;;;;5.00;5.00;;;;;19.26;49.23;102694.51;105666;1292;18045;-68
2022/12/19 04:07:21;;;;;;;;;3.00;3.00;;;;;19.27;49.14;102694.30;105587;1272;20355;-68
2022/12/19 04:09:49;;;;;;;;;3.50;3.00;;;;;19.27;48.95;102689.73;105622;1282;22181;-65
2022/12/19 04:12:16;;;;;;;;;4.00;4.00;;;;;19.27;49.19;102689.94;105694;1272;20510;-67
2022/12/19 04:14:43;;;;;;;;;5.00;4.00;;;;;19.27;49.07;102689.39;105636;1279;20969;-67
2022/12/19 04:17:11;;;;;;;;;7.00;5.00;;;;;19.26;48.96;102685.07;105636;1272;18806;-68
2022/12/19 04:19:39;;;;;;;;;5.00;4.00;;;;;19.26;49.20;102685.64;105657;1279;20022;-67
2022/12/19 04:22:06;;;;;;;;;4.00;4.00;;;;;19.26;48.86;102679.85;105610;1275;18505;-67
2022/12/19 04:24:34;;;;;;;;;4.00;4.00;;;;;19.26;49.05;102677.83;105689;1297;20643;-67
2022/12/19 04:27:01;;;;;;;;;5.00;4.00;;;;;19.25;48.93;102676.98;105660;1279;19585;-67
2022/12/19 04:29:28;;;;;;;;;5.00;4.00;;;;;19.26;48.90;102675.65;105620;1276;20513;-67
2022/12/19 04:31:56;;;;;;;;;4.50;4.00;;;;;19.27;49.11;102677.04;105675;1296;18112;-66
2022/12/19 04:34:23;;;;;;;;;5.00;5.00;;;;;19.26;49.12;102670.80;105647;1282;19998;-66
2022/12/19 04:36:51;;;;;;;;;5.00;4.00;;;;;19.26;48.85;102665.55;105617;1272;18609;-66
2022/12/19 04:39:18;;;;;;;;;2.00;2.00;;;;;19.25;48.97;102664.34;105686;1297;20516;-66
2022/12/19 04:41:46;;;;;;;;;5.00;4.00;;;;;19.25;48.87;102662.15;105632;1291;17843;-67
2022/12/19 04:44:13;;;;;;;;;4.00;4.00;;;;;19.26;48.96;102664.23;105624;1275;18477;-67
2022/12/19 04:46:41;;;;;;;;;4.00;4.00;;;;;19.26;48.93;102667.13;105623;1289;18356;-67
2022/12/19 04:49:08;;;;;;;;;4.00;4.00;;;;;19.24;48.81;102658.58;105644;1282;21884;-68
2022/12/19 04:51:36;;;;;;;;;5.00;4.00;;;;;19.25;48.93;102657.43;105683;1297;18600;-68
2022/12/19 04:54:03;;;;;;;;;5.00;4.00;;;;;19.25;48.83;102652.34;105641;1298;18981;-66
2022/12/19 04:56:31;;;;;;;;;1.50;1.50;;;;;19.25;48.87;102644.36;105613;1272;21809;-66
2022/12/19 04:58:58;;;;;;;;;4.00;4.00;;;;;19.25;48.80;102641.69;105682;1272;20002;-67
2022/12/19 05:01:26;;;;;;;;;2.00;2.00;;;;;19.25;48.56;102638.23;105625;1275;18085;-67
2022/12/19 05:03:53;;;;;;;;;4.00;4.00;;;;;19.24;48.91;102640.83;105602;1279;22006;-67
2022/12/19 05:06:21;;;;;;;;;4.00;4.00;;;;;19.24;48.93;102637.59;105685;1283;18565;-68
2022/12/19 05:08:49;;;;;;;;;4.00;4.00;;;;;19.25;48.77;102639.48;105618;1282;21534;-67
2022/12/19 05:11:16;;;;;;;;;4.00;4.00;;;;;19.27;48.79;102646.09;105571;1282;17761;-65
2022/12/19 05:13:44;;;;;;;;;4.00;4.00;;;;;19.26;48.81;102638.66;105606;1275;21442;-67
2022/12/19 05:16:12;;;;;;;;;4.00;4.00;;;;;19.26;48.63;102633.80;105660;1275;18291;-67
2022/12/19 05:18:40;;;;;;;;;;;;;;;19.26;48.79;102637.41;105647;1275;17898;-68
2022/12/19 05:21:07;;;;;;;;;4.50;4.00;;;;;19.25;48.87;102634.23;105682;1280;20345;-69
2022/12/19 05:23:35;;;;;;;;;3.00;2.00;;;;;19.24;48.40;102633.21;105635;1280;17772;-67
2022/12/19 05:26:02;;;;;;;;;6.00;4.00;;;;;19.25;48.72;102640.04;105594;1279;17829;-66
2022/12/19 05:28:30;;;;;;;;;6.00;6.00;;;;;19.25;48.45;102632.42;105529;1272;151353;-68
2022/12/19 05:30:58;;;;;;;;;3.00;3.00;;;;;19.25;48.74;102628.30;105672;1280;20685;-66
2022/12/19 05:33:26;;;;;;;;;4.00;4.00;;;;;19.24;48.45;102629.20;105645;1283;21973;-66
2022/12/19 05:35:53;;;;;;;;;4.00;4.00;;;;;19.24;48.46;102627.66;105642;1272;18610;-67
2022/12/19 05:38:21;;;;;;;;;2.00;2.00;;;;;19.24;48.81;102628.55;105658;1279;18079;-67
2022/12/19 05:40:48;;;;;;;;;2.00;2.00;;;;;19.24;48.74;102620.73;105620;1280;19174;-67
2022/12/19 05:43:16;;;;;;;;;3.00;3.00;;;;;19.23;48.76;102613.89;105639;1279;18558;-68
2022/12/19 05:45:43;;;;;;;;;4.00;4.00;;;;;19.24;48.79;102609.13;105648;1272;22040;-68
2022/12/19 05:48:12;;;;;;;;;3.00;3.00;;;;;19.25;48.71;102607.07;105650;1298;17876;-67
2022/12/19 05:50:39;;;;;;;;;2.00;2.00;;;;;19.24;48.44;102615.67;105633;1272;21526;-68
2022/12/19 05:53:07;;;;;;;;;4.00;4.00;;;;;19.24;48.58;102616.90;105669;1272;18072;-67
2022/12/19 05:55:35;;;;;;;;;3.00;3.00;;;;;19.24;48.46;102609.16;105647;1279;20970;-67
2022/12/19 05:58:02;;;;;;;;;4.00;2.00;;;;;19.24;48.60;102601.19;105605;1291;18489;-66
2022/12/19 06:00:30;;;;;;;;;2.00;2.00;;;;;19.23;48.43;102598.17;105664;1275;18434;-67
2022/12/19 06:02:58;;;;;;;;;4.00;4.00;;;;;19.23;48.48;102592.69;105612;1279;18082;-67
2022/12/19 06:05:25;;;;;;;;;4.00;4.00;;;;;19.24;48.68;102599.36;105589;1272;18671;-67
2022/12/19 06:07:53;;;;;;;;;4.00;4.00;;;;;19.24;48.56;102592.31;105625;1272;19631;-67
2022/12/19 06:10:20;;;;;;;;;2.00;2.00;;;;;19.22;48.52;102585.38;105587;1281;20156;-67
2022/12/19 06:12:48;;;;;;;;;2.00;2.00;;;;;19.21;48.56;102589.44;105628;1279;18566;-66
2022/12/19 06:15:15;;;;;;;;;4.50;4.50;;;;;19.23;48.58;102589.78;105641;1272;18509;-67
2022/12/19 06:17:43;;;;;;;;;4.00;4.00;;;;;19.28;48.51;102589.25;105629;1282;18132;-67
2022/12/19 06:20:10;;;;;;;;;108.00;82.00;;;;;19.30;48.76;102579.80;105648;1279;20065;-67
2022/12/19 06:22:38;;;;;;;;;190.00;154.00;;;;;19.34;48.80;102570.23;105607;1289;18086;-66
2022/12/19 06:25:05;;;;;;;;;128.00;115.00;;;;;19.36;49.11;102577.30;105570;1272;18430;-65
2022/12/19 06:27:32;;;;;;;;;;;;;;;19.37;49.94;102576.54;105681;1279;19150;-65
2022/12/19 06:30:00;;;;;;;;;87.00;67.00;;;;;19.37;50.20;102571.96;105642;1279;20389;-66
2022/12/19 06:32:27;;;;;;;;;73.00;56.00;;;;;19.36;50.33;102572.79;105647;1275;18010;-66
2022/12/19 06:34:55;;;;;;;;;54.00;47.00;;;;;19.36;50.29;102565.57;105641;1279;20013;-65
2022/12/19 06:37:23;;;;;;;;;58.00;44.00;;;;;19.37;50.36;102567.84;105483;1281;20009;-66
2022/12/19 06:39:50;;;;;;;;;52.00;44.00;;;;;19.35;50.65;102567.86;105628;1272;21904;-67
2022/12/19 06:42:24;;;;;;;;;43.50;39.50;;;;;19.34;50.09;102561.94;105688;1275;18460;-67
2022/12/19 06:44:51;;;;;;;;;48.00;41.00;;;;;19.37;50.02;102566.20;105613;1280;21409;-66
2022/12/19 06:47:19;;;;;;;;;39.50;34.00;;;;;19.38;50.12;102571.23;105592;1272;21886;-66
2022/12/19 06:49:47;;;;;;;;;40.00;35.50;;;;;19.39;50.39;102572.05;105615;1272;19935;-67
2022/12/19 06:52:14;;;;;;;;;;;;;;;19.38;50.17;102571.55;105634;1281;20145;-67
2022/12/19 06:54:42;;;;;;;;;32.00;26.00;;;;;19.36;50.13;102574.47;105670;1288;18639;-68
2022/12/19 06:57:09;;;;;;;;;26.00;23.00;;;;;19.34;50.10;102581.66;105694;1291;18527;-67
2022/12/19 06:59:37;;;;;;;;;29.00;25.00;;;;;19.34;50.19;102581.88;105663;1282;18820;-67
2022/12/19 07:02:04;;;;;;;;;26.00;23.00;;;;;19.33;50.22;102579.21;105608;1296;22026;-67
2022/12/19 07:04:32;;;;;;;;;28.00;25.00;;;;;19.33;49.85;102579.21;105669;1279;19141;-67
2022/12/19 07:06:59;;;;;;;;;23.50;23.50;;;;;19.33;49.75;102581.02;105635;1297;18733;-66
2022/12/19 07:09:27;;;;;;;;;21.00;19.50;;;;;19.32;49.47;102579.30;105684;1297;19706;-68
2022/12/19 07:11:54;;;;;;;;;19.50;17.00;;;;;19.31;49.58;102579.02;105666;1297;18472;-66
2022/12/19 07:14:22;;;;;;;;;17.00;16.00;;;;;19.31;49.87;102571.20;105665;1272;22662;-68
2022/12/19 07:16:49;;;;;;;;;23.00;20.00;;;;;19.30;49.77;102573.31;105660;1297;18242;-68
2022/12/19 07:19:17;;;;;;;;;20.50;18.00;;;;;19.29;49.80;102567.02;105642;1280;18834;-66
2022/12/19 07:21:44;;;;;;;;;;;;;;;19.29;50.10;102569.44;105686;1297;18448;-66
2022/12/19 07:24:12;;;;;;;;;14.00;14.00;;;;;19.28;49.98;102572.23;105567;1297;17629;-67
2022/12/19 07:26:39;;;;;;;;;13.50;11.00;;;;;19.28;50.17;102566.45;105650;1276;18463;-67
2022/12/19 07:29:07;;;;;;;;;17.00;13.50;;;;;19.27;49.94;102559.39;105627;1282;22567;-67
2022/12/19 07:31:35;;;;;;;;;16.00;14.00;;;;;19.28;50.08;102555.33;105617;1276;20305;-67
2022/12/19 07:34:02;;;;;;;;;11.00;10.00;;;;;19.28;49.80;102550.30;105600;1280;22878;-66
2022/12/19 07:36:30;;;;;;;;;11.50;10.00;;;;;19.27;50.04;102555.41;105593;1275;18580;-68
2022/12/19 07:38:57;;;;;;;;;14.00;13.00;;;;;19.27;49.89;102542.92;105593;1272;18063;-67
2022/12/19 07:41:25;;;;;;;;;11.00;11.00;;;;;19.27;50.05;102536.39;105584;1279;18535;-67
2022/12/19 07:43:52;;;;;;;;;13.00;13.00;;;;;19.27;49.77;102538.55;105606;1279;18717;-67
2022/12/19 07:46:21;;;;;;;;;;;;;;;19.28;49.59;102535.60;105533;1295;19615;-67
2022/12/19 07:48:49;;;;;;;;;12.00;12.00;;;;;19.29;49.58;102537.13;105604;1297;18662;-67
2022/12/19 07:51:16;;;;;;;;;10.00;10.00;;;;;19.29;49.77;102529.33;105637;1297;17856;-67
2022/12/19 07:53:44;;;;;;;;;11.00;10.00;;;;;19.30;49.70;102518.95;105505;1282;20317;-67
2022/12/19 07:56:11;;;;;;;;;10.00;8.00;;;;;19.30;49.54;102507.65;105613;1279;20201;-69
2022/12/19 07:58:39;;;;;;;;;10.50;9.00;;;;;19.30;49.54;102503.48;105539;1272;20285;-67
2022/12/19 08:01:06;;;;;;;;;8.00;8.00;;;;;19.30;49.63;102499.33;105535;1297;19395;-68
2022/12/19 08:03:34;;;;;;;;;7.50;7.50;;;;;19.31;49.61;102505.26;105647;1297;20076;-67
2022/12/19 08:06:02;;;;;;;;;11.00;8.00;;;;;19.32;49.36;102498.98;105618;1280;18815;-67
2022/12/19 08:08:29;;;;;;;;;7.50;7.00;;;;;19.33;49.64;102494.20;105578;1282;18233;-67
2022/12/19 08:10:57;;;;;;;;;9.00;7.00;;;;;19.34;49.51;102491.54;105627;1282;18492;-68
2022/12/19 08:13:25;;;;;;;;;11.00;10.00;;;;;19.35;49.90;102483.16;105593;1279;21910;-66
2022/12/19 08:15:53;;;;;;;;;8.00;7.50;;;;;19.37;49.84;102481.57;105640;1282;19094;-66
2022/12/19 08:18:20;;;;;;;;;10.00;8.00;;;;;19.37;49.79;102481.54;105700;1297;18485;-67
2022/12/19 08:20:48;;;;;;;;;7.00;7.00;;;;;19.38;49.72;102489.23;105602;1279;18310;-66
2022/12/19 08:23:16;;;;;;;;;8.00;7.00;;;;;19.38;49.89;102487.05;105659;1282;17794;-64
2022/12/19 08:25:44;;;;;;;;;7.00;7.00;;;;;19.39;49.90;102480.30;105699;1282;18472;-66
2022/12/19 08:28:11;;;;;;;;;8.50;7.50;;;;;19.39;49.96;102469.79;105661;1288;19562;-66
2022/12/19 08:30:39;;;;;;;;;8.00;7.50;;;;;19.43;50.20;102469.24;105622;1298;21549;-64
2022/12/19 08:33:06;;;;;;;;;7.00;5.00;;;;;19.45;50.74;102473.28;105591;1272;22605;-68
2022/12/19 08:35:34;;;;;;;;;11.00;10.00;;;;;19.46;50.23;102461.23;105624;1282;23611;-67
2022/12/19 08:38:01;;;;;;;;;7.00;7.00;;;;;19.45;50.25;102444.28;105595;1282;22828;-66
2022/12/19 08:40:29;;;;;;;;;11.00;10.00;;;;;19.44;50.31;102439.64;105582;1287;20773;-67
2022/12/19 08:42:57;;;;;;;;;8.00;7.00;;;;;19.43;50.01;102432.03;105554;1289;22185;-69
2022/12/19 08:45:24;;;;;;;;;8.00;8.00;;;;;19.44;49.98;102442.00;105649;1279;20429;-67
2022/12/19 08:47:52;;;;;;;;;7.00;7.00;;;;;19.42;50.33;102433.27;105653;1289;19233;-67
2022/12/19 08:50:20;;;;;;;;;11.00;10.50;;;;;19.43;50.10;102434.06;105616;1280;21133;-68
2022/12/19 08:52:48;;;;;;;;;8.00;7.00;;;;;19.46;50.25;102434.55;105644;1275;17989;-68
2022/12/19 08:55:15;;;;;;;;;8.00;8.00;;;;;19.50;50.04;102423.37;105704;1297;18687;-67
2022/12/19 08:57:48;;;;;;;;;9.00;7.50;;;;;19.52;50.23;102427.73;105619;1289;22158;-68
2022/12/19 09:00:15;;;;;;;;;16.00;13.00;;;;;19.53;50.13;102426.02;105738;1297;18228;-68
2022/12/19 09:02:43;;;;;;;;;12.50;10.00;;;;;19.47;48.78;102423.76;105609;1280;20314;-66
2022/12/19 09:05:12;;;;;;;;;10.00;9.00;;;;;19.48;48.31;102417.74;105635;1289;23039;-66
2022/12/19 09:07:40;;;;;;;;;11.00;10.00;;;;;19.49;48.60;102415.45;105614;1279;19127;-66
2022/12/19 09:10:08;;;;;;;;;10.00;8.00;;;;;19.51;48.50;102417.86;105609;1281;20243;-66
2022/12/19 09:12:36;;;;;;;;;10.50;9.00;;;;;19.51;48.46;102407.72;105716;1288;21989;-65
2022/12/19 09:15:04;;;;;;;;;10.00;10.00;;;;;19.51;48.48;102401.88;105626;1279;19881;-69
2022/12/19 09:17:31;;;;;;;;;;;;;;;19.52;48.59;102400.04;105621;1282;18463;-66
2022/12/19 09:19:59;;;;;;;;;10.00;8.00;;;;;19.52;48.55;102390.08;105641;1294;20005;-65
2022/12/19 09:22:27;;;;;;;;;7.50;7.50;;;;;19.53;48.59;102389.73;105560;1272;22619;-67
2022/12/19 09:24:54;;;;;;;;;12.00;8.00;;;;;19.52;48.49;102384.38;105625;1272;18780;-66
2022/12/19 09:27:22;;;;;;;;;8.00;7.00;;;;;19.54;48.35;102382.81;105657;1289;20429;-66
2022/12/19 09:29:50;;;;;;;;;10.00;9.00;;;;;19.54;48.39;102367.38;105595;1282;17740;-68
2022/12/19 09:32:17;;;;;;;;;9.00;9.00;;;;;19.54;48.78;102352.72;105572;1275;18468;-67
2022/12/19 09:34:45;;;;;;;;;8.00;7.00;;;;;19.56;48.76;102346.39;105571;1289;18462;-67
2022/12/19 09:37:12;;;;;;;;;8.00;8.00;;;;;19.61;48.49;102339.98;105542;1279;18298;-67
2022/12/19 09:39:40;;;;;;;;;10.00;9.00;;;;;19.63;48.33;102337.66;105539;1282;18719;-67
2022/12/19 09:42:08;;;;;;;;;10.00;8.00;;;;;19.64;48.03;102342.80;105615;1274;19121;-66
2022/12/19 09:44:35;;;;;;;;;12.00;9.00;;;;;19.65;48.15;102340.31;105618;1279;17977;-66
2022/12/19 09:47:03;;;;;;;;;8.00;8.00;;;;;19.65;48.50;102330.31;105611;1272;18664;-66
2022/12/19 09:49:30;;;;;;;;;8.00;7.00;;;;;19.66;48.68;102318.69;105630;1289;19399;-68
2022/12/19 09:51:58;;;;;;;;;11.00;8.00;;;;;19.63;48.21;102323.09;105638;1289;20825;-68
2022/12/19 09:54:26;;;;;;;;;9.00;7.50;;;;;19.63;48.22;102323.27;105627;1304;18441;-66
2022/12/19 09:56:53;;;;;;;;;7.50;7.00;;;;;19.63;48.61;102322.40;105620;1272;18664;-67
2022/12/19 09:59:21;;;;;;;;;8.00;7.00;;;;;19.61;48.30;102311.06;105672;1279;21670;-67
2022/12/19 10:01:49;;;;;;;;;11.00;10.00;;;;;19.61;48.50;102311.33;105627;1281;21348;-67
2022/12/19 10:04:17;;;;;;;;;13.00;12.00;;;;;19.56;48.07;102311.92;105646;1282;18116;-65
2022/12/19 10:06:45;;;;;;;;;10.00;8.00;;;;;19.44;46.98;102299.08;105680;1288;23160;-67
2022/12/19 10:09:12;;;;;;;;;11.67;10.33;;;;;19.42;46.71;102298.31;105632;1282;18498;-66
2022/12/19 10:11:40;;;;;;;;;9.00;9.00;;;;;19.41;46.83;102292.45;105635;1272;18882;-66
2022/12/19 10:14:08;;;;;;;;;8.00;8.00;;;;;19.42;46.68;102284.29;105601;1272;19133;-66
2022/12/19 10:16:36;;;;;;;;;8.00;8.00;;;;;19.42;46.65;102278.63;105659;1279;18476;-67
2022/12/19 10:19:03;;;;;;;;;6.00;5.00;;;;;19.41;46.66;102275.21;105576;1272;21063;-67
2022/12/19 10:21:31;;;;;;;;;11.00;10.00;;;;;19.42;46.79;102270.80;105525;1288;17713;-67
2022/12/19 10:23:58;;;;;;;;;10.00;8.00;;;;;19.40;46.79;102261.55;105642;1289;30176;-67
2022/12/19 10:26:26;;;;;;;;;9.00;9.00;;;;;19.38;46.53;102257.37;105641;1275;18502;-66
2022/12/19 10:28:53;;;;;;;;;10.00;8.00;;;;;19.40;46.81;102247.24;105647;1275;18347;-68
2022/12/19 10:31:21;;;;;;;;;8.00;7.00;;;;;19.41;46.75;102236.29;105654;1279;22274;-66
2022/12/19 10:33:48;;;;;;;;;8.00;7.00;;;;;19.41;46.90;102232.48;105542;1282;22780;-66
2022/12/19 10:36:16;;;;;;;;;10.50;10.50;;;;;19.43;47.10;102224.16;105657;1298;18030;-65
2022/12/19 10:38:43;;;;;;;;;5.00;5.00;;;;;19.43;47.16;102211.42;105643;1280;18769;-66
2022/12/19 10:41:11;;;;;;;;;;;;;;;19.43;46.98;102212.16;105599;1272;20216;-67
2022/12/19 10:43:38;;;;;;;;;7.00;5.00;;;;;19.44;47.20;102204.79;105557;1281;19439;-66
2022/12/19 10:46:06;;;;;;;;;7.00;7.00;;;;;19.45;47.24;102194.39;105630;1289;20123;-66
2022/12/19 10:48:33;;;;;;;;;7.00;7.00;;;;;19.46;47.16;102193.56;105697;1289;20177;-67
2022/12/19 10:51:01;;;;;;;;;7.00;7.00;;;;;19.46;47.45;102198.44;105648;1297;17774;-66
2022/12/19 10:53:28;;;;;;;;;7.00;5.00;;;;;19.47;47.20;102203.66;105584;1297;19436;-67
2022/12/19 10:55:56;;;;;;;;;10.00;5.00;;;;;19.48;47.46;102203.23;105663;1279;18441;-67
2022/12/19 10:58:23;;;;;;;;;9.33;7.00;;;;;19.48;47.25;102199.02;105492;1279;20525;-68
2022/12/19 11:00:51;;;;;;;;;8.00;7.00;;;;;19.48;46.72;102200.89;105633;1282;20062;-65
2022/12/19 11:03:18;;;;;;;;;7.00;7.00;;;;;19.45;47.34;102203.25;105618;1279;19578;-65
2022/12/19 11:05:46;;;;;;;;;8.00;7.50;;;;;19.45;47.47;102211.42;105550;1289;20109;-65
2022/12/19 11:08:14;;;;;;;;;5.00;5.00;;;;;19.46;47.38;102215.55;105489;1275;21486;-64
2022/12/19 11:10:41;;;;;;;;;;;;;;;19.46;47.59;102210.66;105496;1282;19632;-65
2022/12/19 11:13:09;;;;;;;;;7.00;7.00;;;;;19.46;47.53;102197.59;105645;1297;21371;-64
2022/12/19 11:15:36;;;;;;;;;5.00;5.00;;;;;19.46;47.47;102185.11;105700;1279;18683;-65
2022/12/19 11:18:04;;;;;;;;;4.00;4.00;;;;;19.45;47.48;102184.05;105656;1282;19775;-65
2022/12/19 11:20:31;;;;;;;;;;;;;;;19.45;47.67;102178.27;105650;1295;19937;-64
2022/12/19 11:22:59;;;;;;;;;8.00;7.00;;;;;19.45;47.86;102170.28;105665;1295;18681;-65